Nearby Airports

 

EGLC - London City Airport, England, United Kingdom
Distance from station: SE 6km
Updated: 18/06/2024 08:50
Clear
Clear
 Wind from N
Wind: N 7 km/h
Temperature: 16°C
Dew Point: 10°C
Humidity: 68%
Barometer: 1014 hPa
Clouds: Clear
Visibility: 10 km
2024/06/18 07:50 EGLC 180750Z AUTO 35004KT 300V070 9999 NCD 16/10 Q1014
EGLL - London Heathrow Airport, England, United Kingdom
Distance from station: W 33km
Updated: 18/06/2024 08:50
Clear
Clear
 Wind from N
Wind: N 11 km/h
Temperature: 16°C
Dew Point: 10°C
Humidity: 68%
Barometer: 1014 hPa
Clouds: Clear
Visibility: 10 km
2024/06/18 07:50 EGLL 180750Z AUTO 01006KT 330V050 9999 NCD 16/10 Q1014
EGWU - RAF Northolt Airport, London, England United Kingdom
Distance from station: W 31km
Updated: 18/06/2024 08:50
Clear
Clear
 Wind from NE
Wind: NE 13 km/h
Temperature: 16°C
Dew Point: 10°C
Humidity: 68%
Barometer: 1014 hPa
Summary: Clear
Visibility: greater than 10 km
2024/06/18 07:50 EGWU 180750Z 04007KT CAVOK 16/10 Q1014 NOSIG RMK BLU BLU
 
EGKB - Biggin Hill Airport, London, England, United Kingdom
Distance from station: S 23km
Updated: 18/06/2024 08:50
Clear
Clear
 Wind from NNE
Wind: NNE 9 km/h
Temperature: 14°C
Dew Point: 10°C
Humidity: 77%
Barometer: 1014 hPa
Summary: Clear
Visibility: greater than 10 km
2024/06/18 07:50 EGKB 180750Z 02005KT 350V050 CAVOK 14/10 Q1014
EGKK - Gatwick Airport, England, United Kingdom
Distance from station: S 45km
Updated: 18/06/2024 08:50
Clear
Clear
 Wind from N
Wind: N 13 km/h
Temperature: 16°C
Dew Point: 11°C
Humidity: 72%
Barometer: 1014 hPa
Summary: Clear
Visibility: greater than 10 km
2024/06/18 07:50 EGKK 180750Z 01007KT 350V060 CAVOK 16/11 Q1014
EGMC - Southend-On-Sea Airport, England, United Kingdom
Distance from station: E 46km
Updated: 18/06/2024 08:50
Clear
Clear
 Wind from N
Wind: N 13 km/h
Temperature: 15°C
Dew Point: 11°C
Humidity: 77%
Barometer: 1014 hPa
Summary: Clear
Visibility: greater than 10 km
2024/06/18 07:50 EGMC 180750Z 01007KT 310V030 CAVOK 15/11 Q1014
 
EGGW - Luton Airport, England, United Kingdom
Distance from station: NW 47km
Updated: 18/06/2024 08:50
Clear
Clear
 Wind from N
Wind: N 15 km/h
Temperature: 15°C
Dew Point: 10°C
Humidity: 72%
Barometer: 1014 hPa
Clouds: Clear
Visibility: 10 km
2024/06/18 07:50 EGGW 180750Z AUTO 36008KT 320V030 9999 NCD 15/10 Q1014
EGSS - Stansted Airport, England, United Kingdom
Distance from station: N 42km
Updated: 18/06/2024 08:50
Clear
Clear
 Wind from varies
Wind: varies 6 km/h
Temperature: 15°C
Dew Point: 11°C
Humidity: 77%
Barometer: 1014 hPa
Clouds: Clear
Visibility: 10 km
2024/06/18 07:50 EGSS 180750Z AUTO VRB03KT 9999 NCD 15/11 Q1014